Time;durP1;ratioP1;P1;durP2;ratioP2;P2;SDS_P1;SDS_P2;PMS_P1;PMS_P2;Temp;Humidity;BMP_temperature;BMP_pressure;BME280_temperature;BME280_humidity;BME280_pressure;Samples;Min_cycle;Max_cycle;Signal;HPM_P1;HPM_P2
2022/05/27 00:00:54;;;;;;;;;0.67;0.00;;;;;18.05;100.00;102045.25;5011359;28;45277;-74
2022/05/27 00:03:20;;;;;;;;;0.00;0.00;;;;;18.09;100.00;102048.44;5011713;28;45338;-74
2022/05/27 00:05:50;;;;;;;;;1.00;1.00;;;;;18.08;100.00;102042.00;5011720;28;45751;-74
2022/05/27 00:08:16;;;;;;;;;2.00;1.00;;;;;18.12;100.00;102026.59;5011598;28;45647;-73
2022/05/27 00:10:42;;;;;;;;;1.00;1.00;;;;;18.15;100.00;102031.69;5012364;28;45706;-73
2022/05/27 00:13:08;;;;;;;;;1.33;1.00;;;;;18.14;100.00;102027.25;5010136;28;45909;-74
2022/05/27 00:15:33;;;;;;;;;1.00;0.00;;;;;18.11;100.00;102030.47;5011319;28;45861;-74
2022/05/27 00:17:59;;;;;;;;;0.00;0.00;;;;;18.09;100.00;102031.78;5014895;28;45425;-73
2022/05/27 00:20:25;;;;;;;;;1.00;0.00;;;;;18.04;100.00;102034.38;5014906;28;45462;-73
2022/05/27 00:22:50;;;;;;;;;1.00;1.00;;;;;18.06;100.00;102035.84;5015404;28;45652;-74
2022/05/27 00:25:16;;;;;;;;;2.00;1.00;;;;;18.08;100.00;102027.28;5014301;28;45751;-73
2022/05/27 00:27:41;;;;;;;;;1.00;1.00;;;;;18.07;100.00;102026.47;5013700;28;45308;-74
2022/05/27 00:30:09;;;;;;;;;2.33;1.00;;;;;18.07;100.00;102025.59;5015063;28;46200;-72
2022/05/27 00:32:39;;;;;;;;;1.00;1.00;;;;;18.02;100.00;102015.16;5013633;28;46219;-73
2022/05/27 00:35:07;;;;;;;;;2.33;1.00;;;;;17.93;100.00;102011.00;5013788;28;46773;-75
2022/05/27 00:37:32;;;;;;;;;1.00;1.00;;;;;17.89;100.00;102018.03;5014433;28;45390;-74
2022/05/27 00:39:58;;;;;;;;;1.00;1.00;;;;;17.83;100.00;102011.47;5014163;28;45657;-73
2022/05/27 00:42:24;;;;;;;;;0.67;0.00;;;;;17.73;100.00;102011.97;5014805;28;45501;-73
2022/05/27 00:44:49;;;;;;;;;0.67;0.67;;;;;17.60;100.00;102007.38;5014063;28;45446;-74
2022/05/27 00:47:18;;;;;;;;;3.00;1.00;;;;;17.54;100.00;102016.59;5014343;28;45829;-74
2022/05/27 00:49:48;;;;;;;;;1.00;0.67;;;;;17.49;100.00;102021.13;5029027;28;45758;-73
2022/05/27 00:52:17;;;;;;;;;1.00;1.00;;;;;17.42;100.00;102019.22;5006852;28;45418;-75
2022/05/27 00:54:45;;;;;;;;;2.33;1.00;;;;;17.33;100.00;102012.25;5014265;28;46449;-72
2022/05/27 00:57:15;;;;;;;;;1.33;1.33;;;;;17.21;100.00;102019.59;5012239;28;45685;-73
2022/05/27 00:59:50;;;;;;;;;1.00;1.00;;;;;17.19;100.00;102024.53;5014200;28;45303;-74
2022/05/27 01:02:15;;;;;;;;;0.00;0.00;;;;;17.10;100.00;102019.22;5014182;28;45501;-73
2022/05/27 01:04:42;;;;;;;;;0.00;0.00;;;;;17.05;100.00;102016.28;5014740;28;45354;-73
2022/05/27 01:07:07;;;;;;;;;2.33;0.67;;;;;17.02;100.00;102016.72;5014761;28;45658;-72
2022/05/27 01:09:36;;;;;;;;;2.00;1.00;;;;;16.94;100.00;102016.94;5008902;28;45468;-73
2022/05/27 01:12:29;;;;;;;;;0.67;0.67;;;;;16.92;100.00;102021.88;5014461;28;45517;-73
2022/05/27 01:15:17;;;;;;;;;1.00;0.67;;;;;16.87;100.00;102013.34;5014594;28;46202;-74
2022/05/27 01:18:10;;;;;;;;;1.33;0.67;;;;;16.83;100.00;102012.09;4982349;28;45459;-72
2022/05/27 01:21:02;;;;;;;;;1.00;1.00;;;;;16.77;100.00;102016.56;5014511;28;45330;-73
2022/05/27 01:23:46;;;;;;;;;1.67;1.67;;;;;16.69;100.00;102009.38;5013735;28;45748;-73
2022/05/27 01:26:25;;;;;;;;;3.00;1.33;;;;;16.64;100.00;102011.94;5014103;28;47498;-74
2022/05/27 01:28:54;;;;;;;;;1.33;1.00;;;;;16.64;100.00;102011.09;5011629;28;45553;-72
2022/05/27 01:31:31;;;;;;;;;1.67;1.67;;;;;16.61;100.00;102015.13;5013353;28;45507;-73
2022/05/27 01:34:23;;;;;;;;;2.00;0.67;;;;;16.56;100.00;102014.94;5012600;28;45504;-72
2022/05/27 01:37:05;;;;;;;;;2.00;0.00;;;;;16.52;100.00;102010.91;5005553;28;45727;-72
2022/05/27 01:39:36;;;;;;;;;1.33;0.33;;;;;16.47;100.00;102014.34;5009843;28;45366;-73
2022/05/27 01:42:29;;;;;;;;;3.00;2.00;;;;;16.44;100.00;102016.66;5013545;28;45360;-73
2022/05/27 01:45:37;;;;;;;;;1.67;0.00;;;;;16.36;100.00;102013.09;5011853;28;47575;-73
2022/05/27 01:48:20;;;;;;;;;2.00;0.00;;;;;16.34;100.00;102020.75;5009821;28;45494;-72
2022/05/27 01:50:59;;;;;;;;;1.67;1.00;;;;;16.30;100.00;102016.72;5013243;28;45461;-72
2022/05/27 01:53:33;;;;;;;;;1.00;1.00;;;;;16.29;100.00;102020.56;5013753;28;45658;-71
2022/05/27 01:56:08;;;;;;;;;0.00;0.00;;;;;16.26;100.00;102022.88;5008535;28;46520;-73
2022/05/27 01:58:39;;;;;;;;;1.00;1.00;;;;;16.22;100.00;102020.53;5007846;28;45676;-72
2022/05/27 02:01:09;;;;;;;;;0.67;0.67;;;;;16.19;100.00;102022.91;5012716;28;45525;-72
2022/05/27 02:03:39;;;;;;;;;3.00;1.33;;;;;16.16;100.00;102021.41;5013161;28;45885;-72
2022/05/27 02:06:13;;;;;;;;;1.67;0.67;;;;;16.13;100.00;102024.59;5012903;28;45443;-72
2022/05/27 02:08:49;;;;;;;;;3.00;1.00;;;;;16.14;100.00;102026.31;5012155;28;46422;-72
2022/05/27 02:11:20;;;;;;;;;0.00;0.00;;;;;16.10;100.00;102015.91;5012748;28;45567;-71
2022/05/27 02:13:46;;;;;;;;;3.00;1.00;;;;;16.11;100.00;102015.69;5012462;28;45671;-73
2022/05/27 02:16:18;;;;;;;;;1.00;1.00;;;;;16.09;100.00;102020.56;5012828;28;45380;-72
2022/05/27 02:18:54;;;;;;;;;2.33;2.33;;;;;16.11;100.00;102021.22;5013476;28;45365;-73
2022/05/27 02:21:34;;;;;;;;;1.00;1.00;;;;;16.16;100.00;102023.34;5012494;28;46087;-72
2022/05/27 02:24:06;;;;;;;;;0.33;0.33;;;;;16.20;100.00;102024.63;5013734;28;45736;-71
2022/05/27 02:26:37;;;;;;;;;1.00;1.00;;;;;16.27;100.00;102019.91;5013148;28;45500;-71
2022/05/27 02:29:12;;;;;;;;;5.67;1.00;;;;;16.32;100.00;102014.56;5012001;28;46283;-72
2022/05/27 02:31:45;;;;;;;;;2.67;1.33;;;;;16.40;100.00;102019.03;5011288;28;45474;-72
2022/05/27 02:37:26;;;;;;;;;2.00;2.00;;;;;16.51;100.00;102025.81;5145418;22;45711;-73
2022/05/27 02:39:53;;;;;;;;;3.33;1.67;;;;;16.57;100.00;102017.50;5040774;28;45455;-71
2022/05/27 02:42:37;;;;;;;;;2.00;2.00;;;;;16.62;100.00;102011.31;5041626;28;45749;-74
2022/05/27 02:45:23;;;;;;;;;3.67;1.67;;;;;16.67;100.00;102019.78;5041344;28;45306;-72
2022/05/27 02:47:58;;;;;;;;;2.00;1.00;;;;;16.68;100.00;102015.13;5048826;28;45718;-73
2022/05/27 02:51:01;;;;;;;;;2.00;1.00;;;;;16.68;100.00;102010.44;5031400;28;46715;-72
2022/05/27 02:53:39;;;;;;;;;2.00;2.00;;;;;16.70;100.00;102013.81;5041335;28;45877;-72
2022/05/27 02:56:18;;;;;;;;;1.67;1.67;;;;;16.70;100.00;102010.22;5041004;28;45580;-72
2022/05/27 02:58:43;;;;;;;;;2.67;2.00;;;;;16.69;100.00;102014.91;5051302;28;45713;-72
2022/05/27 03:01:09;;;;;;;;;1.00;1.00;;;;;16.70;100.00;102019.34;5052399;28;45399;-72
2022/05/27 03:03:35;;;;;;;;;5.33;1.67;;;;;16.70;100.00;102013.81;5049150;28;45514;-72
2022/05/27 03:06:22;;;;;;;;;2.00;2.00;;;;;16.71;100.00;102018.28;5045242;28;45674;-73
2022/05/27 03:09:02;;;;;;;;;0.67;0.67;;;;;16.74;100.00;102017.84;5036108;28;45736;-73
2022/05/27 03:11:54;;;;;;;;;2.33;2.33;;;;;16.74;100.00;102015.09;5052662;28;45724;-72
2022/05/27 03:14:50;;;;;;;;;3.00;3.00;;;;;16.72;100.00;102010.81;5045369;28;45599;-72
2022/05/27 03:17:34;;;;;;;;;3.33;3.33;;;;;16.70;100.00;102019.34;5045985;28;45678;-72
2022/05/27 03:20:16;;;;;;;;;4.67;3.67;;;;;16.69;100.00;102009.38;5051889;28;45684;-71
2022/05/27 03:22:47;;;;;;;;;3.00;3.00;;;;;16.69;100.00;102011.25;5050347;28;46694;-72
2022/05/27 03:25:32;;;;;;;;;2.00;2.00;;;;;16.65;100.00;102005.31;5052041;28;45700;-72
2022/05/27 03:28:14;;;;;;;;;4.00;2.67;;;;;16.69;100.00;102002.97;5031524;28;45484;-72
2022/05/27 03:30:57;;;;;;;;;6.00;3.00;;;;;16.69;100.00;102006.59;5031994;28;45597;-73
2022/05/27 03:33:34;;;;;;;;;3.00;2.33;;;;;16.72;100.00;102008.06;5045895;28;46482;-73
2022/05/27 03:36:14;;;;;;;;;6.00;6.00;;;;;16.72;100.00;102008.94;5041860;28;45266;-74
2022/05/27 03:38:50;;;;;;;;;5.00;5.00;;;;;16.74;100.00;102006.78;5047489;28;45561;-74
2022/05/27 03:41:22;;;;;;;;;8.00;7.00;;;;;16.76;100.00;102003.78;5051686;28;45678;-72
2022/05/27 03:43:50;;;;;;;;;7.67;6.67;;;;;16.80;100.00;102018.06;5051344;28;45524;-72
2022/05/27 03:46:30;;;;;;;;;6.33;4.00;;;;;16.77;100.00;102020.19;5043537;28;45697;-72
2022/05/27 03:48:56;;;;;;;;;8.00;7.00;;;;;16.83;100.00;102021.25;5051069;28;45851;-74
2022/05/27 03:51:26;;;;;;;;;3.33;2.00;;;;;16.83;100.00;102012.09;5049606;28;45694;-73
2022/05/27 03:54:03;;;;;;;;;3.67;3.67;;;;;16.87;100.00;102007.81;5052319;28;46061;-73
2022/05/27 03:56:34;;;;;;;;;3.33;3.00;;;;;16.92;100.00;102021.88;5051303;28;45628;-72
2022/05/27 03:59:01;;;;;;;;;2.00;2.00;;;;;16.88;100.00;102015.91;5051622;28;45709;-73
2022/05/27 04:01:29;;;;;;;;;2.33;2.00;;;;;16.90;100.00;102007.38;5054204;28;45487;-72
2022/05/27 04:04:00;;;;;;;;;1.00;1.00;;;;;16.92;100.00;102019.94;5047057;28;47069;-71
2022/05/27 04:06:27;;;;;;;;;2.33;1.00;;;;;16.94;100.00;102016.94;5046773;28;45368;-72
2022/05/27 04:08:53;;;;;;;;;3.67;3.67;;;;;16.94;100.00;102022.50;5055115;28;45641;-73
2022/05/27 04:11:19;;;;;;;;;3.00;3.00;;;;;16.94;100.00;102015.03;5044801;28;45908;-72
2022/05/27 04:13:46;;;;;;;;;2.67;2.67;;;;;16.95;100.00;102015.91;5048775;28;45893;-73
2022/05/27 04:16:11;;;;;;;;;3.00;2.00;;;;;16.99;100.00;102021.84;5054343;28;45469;-73
2022/05/27 04:18:37;;;;;;;;;2.00;2.00;;;;;17.00;100.00;102018.00;5043046;28;45385;-72
2022/05/27 04:21:03;;;;;;;;;3.33;1.33;;;;;17.02;100.00;102022.25;5047153;28;45676;-72
2022/05/27 04:23:29;;;;;;;;;3.00;3.00;;;;;17.03;100.00;102032.25;5038209;28;45824;-72
2022/05/27 04:25:54;;;;;;;;;1.67;1.67;;;;;17.05;100.00;102032.91;5040899;28;45403;-73
2022/05/27 04:28:20;;;;;;;;;4.00;2.67;;;;;17.05;100.00;102030.13;5044685;28;45369;-74
2022/05/27 04:30:45;;;;;;;;;2.00;2.00;;;;;17.02;100.00;102027.81;5041998;28;45477;-72
2022/05/27 04:33:11;;;;;;;;;3.33;3.00;;;;;17.04;100.00;102024.81;5050870;28;45557;-73
2022/05/27 04:35:38;;;;;;;;;7.67;4.00;;;;;17.03;100.00;102021.16;5054362;28;45608;-73
2022/05/27 04:38:03;;;;;;;;;2.33;2.33;;;;;17.06;100.00;102031.81;5054615;28;45333;-73
2022/05/27 04:40:29;;;;;;;;;6.00;3.67;;;;;17.05;100.00;102038.44;5044755;28;46306;-72
2022/05/27 04:42:55;;;;;;;;;7.67;3.67;;;;;17.03;100.00;102034.19;5054671;28;46407;-73
2022/05/27 04:45:21;;;;;;;;;3.33;3.33;;;;;17.03;100.00;102035.03;5054070;28;45890;-75
2022/05/27 04:47:47;;;;;;;;;3.00;3.00;;;;;17.03;100.00;102026.72;5039806;28;45760;-73
2022/05/27 04:50:13;;;;;;;;;5.33;4.67;;;;;17.10;100.00;102035.84;5045624;28;45830;-73
2022/05/27 04:52:39;;;;;;;;;2.00;2.00;;;;;17.11;100.00;102033.91;5051399;28;46183;-73
2022/05/27 04:55:10;;;;;;;;;1.67;1.67;;;;;17.13;100.00;102030.94;5035111;28;45419;-72
2022/05/27 04:57:42;;;;;;;;;4.67;4.67;;;;;17.11;100.00;102037.56;5034965;28;45558;-72
2022/05/27 05:00:13;;;;;;;;;2.00;2.00;;;;;17.14;100.00;102029.84;5035206;28;45501;-74
2022/05/27 05:02:38;;;;;;;;;7.00;4.67;;;;;17.15;100.00;102031.56;5043612;28;45485;-72
2022/05/27 05:05:04;;;;;;;;;6.00;6.00;;;;;17.14;100.00;102027.09;5055609;28;45365;-72
2022/05/27 05:07:30;;;;;;;;;10.33;6.00;;;;;17.18;100.00;102028.34;5047762;28;45425;-71
2022/05/27 05:09:55;;;;;;;;;5.00;4.00;;;;;17.18;100.00;102033.91;5052704;28;45516;-73
2022/05/27 05:12:22;;;;;;;;;7.00;6.00;;;;;17.17;100.00;102029.41;5053913;28;45742;-72
2022/05/27 05:14:49;;;;;;;;;4.33;4.33;;;;;17.24;100.00;102038.56;5045526;28;45718;-73
2022/05/27 05:17:15;;;;;;;;;6.67;6.67;;;;;17.24;100.00;102033.84;5053543;28;45666;-72
2022/05/27 05:19:40;;;;;;;;;6.00;6.00;;;;;17.22;100.00;102043.47;5044436;28;45682;-72
2022/05/27 05:22:06;;;;;;;;;4.00;4.00;;;;;17.27;100.00;102040.88;5016415;28;47878;-73
2022/05/27 05:24:31;;;;;;;;;7.67;7.00;;;;;17.32;100.00;102032.75;5041150;28;45367;-72
2022/05/27 05:26:57;;;;;;;;;10.67;6.67;;;;;17.28;100.00;102031.50;5051287;28;45464;-73
2022/05/27 05:29:23;;;;;;;;;13.00;8.00;;;;;17.25;100.00;102037.50;5052965;28;45795;-71
2022/05/27 05:31:48;;;;;;;;;8.33;8.00;;;;;17.23;100.00;102034.06;5034489;28;45422;-74
2022/05/27 05:34:13;;;;;;;;;8.33;8.33;;;;;17.27;100.00;102030.63;5053719;28;45563;-72
2022/05/27 05:36:39;;;;;;;;;6.67;6.00;;;;;17.31;100.00;102036.59;5017301;28;45879;-72
2022/05/27 05:39:05;;;;;;;;;9.33;8.67;;;;;17.35;100.00;102037.00;5016507;28;45589;-73
2022/05/27 05:41:38;;;;;;;;;11.33;10.00;;;;;17.39;100.00;102036.31;5048287;28;46650;-73
2022/05/27 05:44:06;;;;;;;;;12.67;10.33;;;;;17.41;100.00;102025.88;5044904;28;45769;-74
2022/05/27 05:46:36;;;;;;;;;15.00;9.33;;;;;17.44;100.00;102032.88;5053560;28;45661;-75
2022/05/27 05:49:03;;;;;;;;;12.00;10.33;;;;;17.47;100.00;102029.69;5051757;28;45737;-74
2022/05/27 05:51:28;;;;;;;;;12.00;10.67;;;;;17.49;100.00;102043.31;5032185;28;45431;-74
2022/05/27 05:53:54;;;;;;;;;13.67;9.00;;;;;17.47;100.00;102035.22;5050010;28;45382;-73
2022/05/27 05:56:23;;;;;;;;;18.33;14.67;;;;;17.45;100.00;102026.25;5049635;28;45500;-73
2022/05/27 05:58:50;;;;;;;;;16.33;12.33;;;;;17.50;100.00;102033.91;5040932;28;45443;-73
2022/05/27 06:01:17;;;;;;;;;16.00;15.00;;;;;17.49;100.00;102035.00;5041433;28;45450;-71
2022/05/27 06:03:42;;;;;;;;;21.00;15.67;;;;;17.54;100.00;102038.78;5033336;28;45770;-73
2022/05/27 06:06:08;;;;;;;;;17.33;14.33;;;;;17.56;100.00;102038.56;5042682;28;45634;-72
2022/05/27 06:08:33;;;;;;;;;18.67;14.67;;;;;17.56;100.00;102039.44;5053039;28;45801;-73
2022/05/27 06:10:58;;;;;;;;;19.33;15.67;;;;;17.56;100.00;102038.56;5045444;28;45830;-73
2022/05/27 06:13:26;;;;;;;;;14.00;10.67;;;;;17.59;100.00;102038.09;5052359;28;45631;-73
2022/05/27 06:15:52;;;;;;;;;11.67;11.67;;;;;17.57;100.00;102031.94;5053217;28;45797;-76
2022/05/27 06:18:17;;;;;;;;;12.00;9.67;;;;;17.64;100.00;102029.97;5045122;28;45613;-75
2022/05/27 06:20:43;;;;;;;;;13.00;12.33;;;;;17.67;100.00;102037.84;5067296;28;45498;-73
2022/05/27 06:23:09;;;;;;;;;19.67;13.00;;;;;17.73;100.00;102033.34;5033585;28;45374;-75
2022/05/27 06:25:34;;;;;;;;;14.33;13.00;;;;;17.76;100.00;102044.81;5024045;28;45755;-73
2022/05/27 06:36:13;;;;;;;;;11.00;8.33;;;;;17.78;100.00;102052.91;5052491;28;45654;-73
2022/05/27 06:38:38;;;;;;;;;6.67;6.67;;;;;17.86;100.00;102057.34;5041234;28;45751;-73
2022/05/27 06:41:04;;;;;;;;;10.33;9.67;;;;;17.88;100.00;102057.97;5047465;28;45463;-74
2022/05/27 06:43:33;;;;;;;;;9.67;9.00;;;;;17.90;100.00;102061.41;5049829;28;45705;-73
2022/05/27 06:46:00;;;;;;;;;11.00;11.00;;;;;17.93;100.00;102058.16;5040177;28;45739;-75
2022/05/27 06:48:26;;;;;;;;;11.00;8.67;;;;;17.96;100.00;102054.94;5042867;28;45819;-72
2022/05/27 06:50:51;;;;;;;;;7.33;6.00;;;;;18.07;100.00;102051.44;5045917;28;45657;-73
2022/05/27 06:53:17;;;;;;;;;6.67;6.67;;;;;18.16;100.00;102052.84;5052493;28;45504;-73
2022/05/27 06:55:48;;;;;;;;;7.00;6.67;;;;;18.28;100.00;102041.84;5041157;28;45350;-74
2022/05/27 06:58:13;;;;;;;;;7.00;7.00;;;;;18.47;100.00;102042.72;5040827;28;45651;-74
2022/05/27 07:00:39;;;;;;;;;9.00;6.33;;;;;18.62;100.00;102036.78;5049087;28;46321;-73
2022/05/27 07:03:05;;;;;;;;;7.00;6.33;;;;;18.80;100.00;102040.63;5047392;28;45345;-74
2022/05/27 07:05:31;;;;;;;;;14.67;10.67;;;;;19.05;100.00;102030.28;5050635;28;45274;-75
2022/05/27 07:07:58;;;;;;;;;10.00;8.67;;;;;19.43;100.00;102025.50;5034794;28;45517;-74
2022/05/27 07:10:23;;;;;;;;;7.67;6.33;;;;;19.79;100.00;102029.25;5036522;28;46919;-73
2022/05/27 07:12:49;;;;;;;;;7.67;6.67;;;;;20.11;100.00;102020.56;5050745;28;45720;-75
2022/05/27 07:15:16;;;;;;;;;6.67;6.67;;;;;20.46;100.00;102016.88;5051070;28;45717;-74
2022/05/27 07:17:41;;;;;;;;;10.00;7.33;;;;;20.74;100.00;102018.09;5051521;28;45666;-74
2022/05/27 07:20:08;;;;;;;;;9.00;6.67;;;;;20.99;100.00;102020.56;5045790;28;46427;-73
2022/05/27 07:22:33;;;;;;;;;3.33;3.00;;;;;21.32;100.00;102011.44;5033862;28;45687;-74
2022/05/27 07:24:59;;;;;;;;;8.33;6.33;;;;;21.80;100.00;102020.41;5051706;28;45713;-74
2022/05/27 07:27:24;;;;;;;;;9.33;7.67;;;;;22.17;100.00;102024.63;5043915;28;45724;-73
2022/05/27 07:29:50;;;;;;;;;10.00;10.00;;;;;22.47;100.00;102023.41;5030866;28;46965;-73
2022/05/27 07:32:15;;;;;;;;;11.00;6.67;;;;;22.64;100.00;102023.38;5047097;28;45394;-73
2022/05/27 07:34:41;;;;;;;;;7.00;7.00;;;;;22.68;100.00;102019.81;5050705;28;45484;-72
2022/05/27 07:37:06;;;;;;;;;9.33;7.67;;;;;22.78;100.00;102030.25;5051829;28;45593;-72
2022/05/27 07:39:32;;;;;;;;;9.33;7.67;;;;;22.76;100.00;102026.88;5051075;28;46006;-75
2022/05/27 07:41:57;;;;;;;;;10.00;9.00;;;;;22.70;100.00;102020.38;5036212;28;45663;-72
2022/05/27 07:44:23;;;;;;;;;12.00;8.33;;;;;22.59;100.00;102026.97;5051831;28;45255;-74
2022/05/27 07:46:52;;;;;;;;;9.00;7.67;;;;;22.48;100.00;102025.09;5172031;22;45673;-75
2022/05/27 07:49:17;;;;;;;;;5.33;5.33;;;;;22.39;100.00;102022.78;5052021;28;45996;-73
2022/05/27 07:51:43;;;;;;;;;10.67;7.33;;;;;22.37;100.00;102024.13;5052423;28;45548;-74
2022/05/27 07:54:11;;;;;;;;;10.00;7.33;;;;;22.32;100.00;102030.50;5052879;28;45475;-74
2022/05/27 07:56:37;;;;;;;;;10.33;8.33;;;;;22.26;100.00;102034.28;5048291;28;45971;-74
2022/05/27 07:59:02;;;;;;;;;15.67;11.33;;;;;22.13;100.00;102024.28;5051406;28;46443;-71
2022/05/27 08:01:28;;;;;;;;;31.67;25.33;;;;;21.92;100.00;102023.13;5051454;28;45362;-73
2022/05/27 08:03:53;;;;;;;;;15.33;12.33;;;;;21.83;100.00;102019.06;5051376;28;45813;-72
2022/05/27 08:06:18;;;;;;;;;20.33;19.00;;;;;21.77;100.00;102020.09;5051143;28;45765;-76
2022/05/27 08:08:44;;;;;;;;;10.00;8.67;;;;;21.74;100.00;102020.59;5051500;28;45715;-73
2022/05/27 08:11:09;;;;;;;;;9.00;8.33;;;;;21.73;100.00;102025.31;5052139;28;45747;-74
2022/05/27 08:13:35;;;;;;;;;8.67;8.00;;;;;21.72;100.00;102019.97;5052022;28;45499;-74
2022/05/27 08:16:00;;;;;;;;;10.67;9.33;;;;;21.79;100.00;102020.66;5034112;28;45430;-74
2022/05/27 08:18:27;;;;;;;;;42.00;33.33;;;;;21.80;100.00;102019.56;5051705;28;45459;-73
2022/05/27 08:20:53;;;;;;;;;32.00;23.00;;;;;21.79;100.00;102031.84;5051274;28;45632;-75
2022/05/27 08:23:19;;;;;;;;;7.67;7.67;;;;;21.69;100.00;102030.56;5067305;28;45782;-74
2022/05/27 08:25:44;;;;;;;;;8.00;6.67;;;;;21.60;100.00;102031.22;5050859;28;45457;-76
2022/05/27 08:28:10;;;;;;;;;5.33;4.67;;;;;21.52;100.00;102024.94;5050666;28;45807;-73
2022/05/27 08:30:38;;;;;;;;;7.00;6.00;;;;;21.46;100.00;102034.28;5033604;28;45520;-73
2022/05/27 08:33:03;;;;;;;;;14.67;11.67;;;;;21.38;100.00;102039.44;5051044;28;45600;-74
2022/05/27 08:38:22;;;;;;;;;22.00;17.67;;;;;21.19;100.00;102008.94;5142237;22;45907;-74
2022/05/27 08:41:06;;;;;;;;;9.00;7.67;;;;;21.27;100.00;102033.69;5055065;28;45252;-74
2022/05/27 08:43:37;;;;;;;;;4.33;4.00;;;;;21.12;100.00;102039.81;5054923;28;45311;-74
2022/05/27 08:46:37;;;;;;;;;5.67;5.67;;;;;21.07;100.00;102033.28;5054214;28;45507;-73
2022/05/27 08:49:08;;;;;;;;;8.67;6.00;;;;;21.08;100.00;102034.97;5055080;28;45675;-73
2022/05/27 08:52:12;;;;;;;;;4.33;3.33;;;;;21.05;100.00;102035.44;5054412;28;45769;-74
2022/05/27 08:54:47;;;;;;;;;6.00;5.00;;;;;20.96;100.00;102041.41;5052048;28;45898;-72
2022/05/27 09:00:07;;;;;;;;;4.00;4.00;;;;;20.89;100.00;102049.06;5051961;28;45719;-71
2022/05/27 09:02:44;;;;;;;;;3.33;3.33;;;;;20.86;100.00;102041.19;5054161;28;45647;-71
2022/05/27 09:05:26;;;;;;;;;4.33;3.33;;;;;20.86;100.00;102044.00;5054426;28;46137;-70
2022/05/27 09:08:06;;;;;;;;;5.00;4.00;;;;;20.82;100.00;102040.00;5054088;28;45439;-73
2022/05/27 09:10:48;;;;;;;;;4.33;4.33;;;;;20.83;100.00;102043.66;5053932;28;46053;-71
2022/05/27 09:13:34;;;;;;;;;7.33;5.00;;;;;20.83;100.00;102040.88;5054201;28;45563;-71
2022/05/27 09:16:36;;;;;;;;;2.67;2.67;;;;;20.89;100.00;102045.44;5054608;28;45782;-70
2022/05/27 09:19:27;;;;;;;;;4.00;4.00;;;;;20.94;100.00;102051.13;5036038;28;46087;-72
2022/05/27 09:22:34;;;;;;;;;4.00;4.00;;;;;20.99;100.00;102043.72;5049629;28;45667;-71
2022/05/27 09:25:11;;;;;;;;;3.67;3.67;;;;;21.06;100.00;102048.28;5036884;28;45413;-70
2022/05/27 09:28:17;;;;;;;;;3.33;3.00;;;;;21.19;100.00;102044.38;5053818;28;45536;-69
2022/05/27 09:30:43;;;;;;;;;4.67;3.00;;;;;21.29;100.00;102039.84;5054144;28;45786;-69
2022/05/27 09:33:19;;;;;;;;;3.00;3.00;;;;;21.45;100.00;102043.78;5053524;28;45716;-71
2022/05/27 09:36:03;;;;;;;;;4.67;3.00;;;;;21.64;100.00;102033.25;5054455;28;45315;-71
2022/05/27 09:38:31;;;;;;;;;3.00;3.00;;;;;21.73;100.00;102027.25;5054053;28;45713;-71
2022/05/27 09:41:23;;;;;;;;;3.00;3.00;;;;;21.78;100.00;102038.50;5053763;28;45448;-71
2022/05/27 09:44:35;;;;;;;;;6.33;3.67;;;;;21.90;100.00;102033.72;5053179;28;45786;-71
2022/05/27 09:47:03;;;;;;;;;3.00;2.67;;;;;22.00;100.00;102031.06;5039758;28;45541;-71
2022/05/27 09:49:30;;;;;;;;;4.33;4.33;;;;;22.13;100.00;102034.63;5053902;28;45795;-72
2022/05/27 09:51:56;;;;;;;;;5.00;3.00;;;;;22.21;100.00;102032.22;5053148;28;45402;-70
2022/05/27 09:54:47;;;;;;;;;4.00;3.00;;;;;22.27;100.00;102037.91;5053212;28;46637;-70
2022/05/27 09:57:25;;;;;;;;;3.33;3.00;;;;;22.34;100.00;102039.44;5053156;28;45547;-71
2022/05/27 09:59:59;;;;;;;;;3.00;3.00;;;;;22.47;100.00;102023.41;5052304;28;45430;-73
2022/05/27 10:02:34;;;;;;;;;2.67;2.00;;;;;22.65;100.00;102025.91;5051588;28;45402;-71
2022/05/27 10:05:38;;;;;;;;;4.00;4.00;;;;;22.80;100.00;102024.41;5053222;28;46056;-71
2022/05/27 10:08:03;;;;;;;;;2.67;2.67;;;;;23.01;100.00;102015.16;5030029;28;45682;-70
2022/05/27 10:10:32;;;;;;;;;3.00;3.00;;;;;23.41;100.00;102019.56;5035829;28;45806;-71
2022/05/27 10:13:19;;;;;;;;;4.00;4.00;;;;;23.75;100.00;102024.06;5052816;28;45646;-71
2022/05/27 10:15:45;;;;;;;;;5.33;4.33;;;;;24.01;100.00;102004.69;5052741;28;45509;-71
2022/05/27 10:18:16;;;;;;;;;3.67;3.67;;;;;24.29;100.00;102003.47;5052806;28;45822;-72
2022/05/27 10:20:47;;;;;;;;;4.00;4.00;;;;;24.57;100.00;102007.84;5034680;28;45781;-70
2022/05/27 10:23:24;;;;;;;;;2.67;2.67;;;;;24.70;100.00;102008.47;5053092;28;45813;-70
2022/05/27 10:25:50;;;;;;;;;3.00;3.00;;;;;24.71;100.00;102008.19;5052827;28;46177;-70
2022/05/27 10:28:31;;;;;;;;;6.00;5.00;;;;;24.70;100.00;102002.88;5053042;28;45302;-71
2022/05/27 10:31:02;;;;;;;;;4.67;4.00;;;;;24.65;100.00;102003.69;5052518;28;45468;-72
2022/05/27 10:33:47;;;;;;;;;2.33;2.33;;;;;24.66;100.00;102005.38;5052950;28;45787;-69
2022/05/27 10:36:40;;;;;;;;;4.00;3.00;;;;;24.52;100.00;102006.97;5047033;28;45840;-71
2022/05/27 10:39:13;;;;;;;;;5.00;3.67;;;;;24.47;100.00;102000.19;5053372;28;45469;-72
2022/05/27 10:42:03;;;;;;;;;3.00;3.00;;;;;24.64;100.00;102007.59;5053403;28;45776;-72
2022/05/27 10:45:15;;;;;;;;;3.67;3.00;;;;;24.81;100.00;101997.03;5035041;28;45713;-72
2022/05/27 10:48:08;;;;;;;;;3.00;3.00;;;;;25.02;100.00;102005.53;5051777;28;46045;-73
2022/05/27 10:50:48;;;;;;;;;6.00;3.67;;;;;25.17;100.00;102005.56;5052168;28;45691;-73
2022/05/27 10:53:13;;;;;;;;;4.33;3.33;;;;;25.30;100.00;102006.16;5052904;28;45643;-72
2022/05/27 10:56:16;;;;;;;;;5.00;5.00;;;;;25.38;100.00;102008.44;5052965;28;45795;-71
2022/05/27 11:02:05;;;;;;;;;15.67;13.33;;;;;25.52;100.00;102003.97;5051902;28;45662;-72
2022/05/27 11:05:07;;;;;;;;;11.00;11.00;;;;;25.43;100.00;102011.25;5034754;28;45645;-72
2022/05/27 11:07:38;;;;;;;;;7.67;7.67;;;;;25.42;100.00;102008.72;5050881;28;45765;-71
2022/05/27 11:10:43;;;;;;;;;35.33;31.67;;;;;25.45;100.00;101997.78;5050582;28;45702;-72
2022/05/27 11:16:14;;;;;;;;;9.67;8.33;;;;;25.86;100.00;102002.56;5051217;28;45667;-71
2022/05/27 11:18:58;;;;;;;;;5.00;5.00;;;;;26.05;100.00;102000.06;5051296;28;45926;-71
2022/05/27 11:21:52;;;;;;;;;26.67;25.67;;;;;26.41;100.00;101997.16;5067073;28;46597;-71
2022/05/27 11:24:25;;;;;;;;;4.00;3.00;;;;;26.67;100.00;101994.28;5018085;28;45454;-71
2022/05/27 11:27:07;;;;;;;;;9.33;9.33;;;;;26.90;100.00;101999.25;5051776;28;45468;-71
2022/05/27 11:30:02;;;;;;;;;5.00;5.00;;;;;27.05;100.00;102000.28;5051898;28;45380;-72
2022/05/27 11:32:56;;;;;;;;;5.00;5.00;;;;;27.16;100.00;101987.81;5051270;28;46136;-72
2022/05/27 11:36:09;;;;;;;;;5.00;5.00;;;;;27.13;100.00;101986.44;5043424;28;45696;-71
2022/05/27 11:39:12;;;;;;;;;5.00;5.00;;;;;26.90;100.00;101990.78;5052066;28;45661;-73
2022/05/27 11:41:52;;;;;;;;;9.00;8.00;;;;;26.72;100.00;101981.03;5019843;28;45511;-71
2022/05/27 11:44:38;;;;;;;;;4.33;4.33;;;;;26.58;100.00;101985.56;5052342;28;46327;-72
2022/05/27 11:47:15;;;;;;;;;5.00;5.00;;;;;26.58;100.00;101977.94;5053114;28;45361;-72
2022/05/27 11:50:14;;;;;;;;;5.33;5.33;;;;;26.58;100.00;101975.13;5051285;28;45333;-72
2022/05/27 11:53:17;;;;;;;;;6.00;5.00;;;;;26.48;100.00;101979.97;5051429;28;46999;-69
2022/05/27 11:55:45;;;;;;;;;9.33;9.33;;;;;26.47;100.00;101969.81;5051174;28;45671;-70
2022/05/27 11:58:46;;;;;;;;;6.33;4.33;;;;;26.23;100.00;101974.13;5050669;28;45402;-71
2022/05/27 12:01:18;;;;;;;;;10.00;7.67;;;;;26.04;100.00;101970.25;5051411;28;45729;-73
2022/05/27 12:04:05;;;;;;;;;4.33;3.33;;;;;25.82;100.00;101974.16;5051656;28;45393;-72
2022/05/27 12:06:56;;;;;;;;;10.33;8.67;;;;;25.50;100.00;101972.50;5043126;28;45673;-71